createdAt,value
2022-10-17T00:01:06.137Z,11.23
2022-10-17T00:03:34.419Z,11.23
2022-10-17T00:06:07.057Z,11.19
2022-10-17T00:08:35.165Z,11.17
2022-10-17T00:11:06.265Z,11.17
2022-10-17T00:13:35.148Z,11.18
2022-10-17T00:16:03.295Z,11.18
2022-10-17T00:18:33.793Z,11.09
2022-10-17T00:21:01.862Z,11.13
2022-10-17T00:23:30.574Z,11.10
2022-10-17T00:26:02.789Z,11.16
2022-10-17T00:28:31.065Z,11.24
2022-10-17T00:31:00.203Z,11.31
2022-10-17T00:33:29.078Z,11.30
2022-10-17T00:36:06.393Z,11.36
2022-10-17T00:38:34.818Z,11.31
2022-10-17T00:41:03.193Z,11.32
2022-10-17T00:43:33.152Z,11.40
2022-10-17T00:46:01.217Z,11.38
2022-10-17T00:48:29.521Z,11.42
2022-10-17T00:50:57.778Z,11.47
2022-10-17T00:53:27.362Z,11.45
2022-10-17T00:55:55.808Z,11.40
2022-10-17T00:58:24.059Z,11.38
2022-10-17T01:00:52.145Z,11.32
2022-10-17T01:03:20.283Z,11.31
2022-10-17T01:05:48.708Z,11.34
2022-10-17T01:08:17.049Z,11.29
2022-10-17T01:10:58.688Z,11.32
2022-10-17T01:13:31.709Z,11.32
2022-10-17T01:16:11.311Z,11.30
2022-10-17T01:18:52.609Z,11.31
2022-10-17T01:21:41.422Z,11.29
2022-10-17T01:24:38.395Z,11.28
2022-10-17T01:27:30.749Z,11.33
2022-10-17T01:30:33.593Z,11.31
2022-10-17T01:33:10.597Z,11.29
2022-10-17T01:35:43.170Z,11.26
2022-10-17T01:38:15.990Z,11.26
2022-10-17T01:40:48.982Z,11.28
2022-10-17T01:43:22.733Z,11.25
2022-10-17T01:45:54.808Z,11.24
2022-10-17T01:48:28.194Z,11.25
2022-10-17T01:51:02.795Z,11.20
2022-10-17T01:53:35.108Z,11.13
2022-10-17T01:56:07.768Z,11.20
2022-10-17T01:58:42.817Z,11.16
2022-10-17T02:01:13.577Z,11.23
2022-10-17T02:03:45.091Z,11.31
2022-10-17T02:06:13.418Z,11.27
2022-10-17T02:08:43.380Z,11.24
2022-10-17T02:11:16.539Z,11.22
2022-10-17T02:14:07.771Z,11.17
2022-10-17T02:16:40.195Z,11.23
2022-10-17T02:19:32.093Z,11.18
2022-10-17T02:22:13.526Z,11.28
2022-10-17T02:24:49.133Z,11.31
2022-10-17T02:27:26.409Z,11.22
2022-10-17T02:30:02.706Z,11.33
2022-10-17T02:32:38.601Z,11.37
2022-10-17T02:35:12.430Z,11.42
2022-10-17T02:37:43.264Z,11.39
2022-10-17T02:40:14.839Z,11.38
2022-10-17T02:42:46.265Z,11.49
2022-10-17T02:45:15.979Z,11.44
2022-10-17T02:47:52.556Z,11.51
2022-10-17T02:50:25.734Z,11.49
2022-10-17T02:52:57.912Z,11.45
2022-10-17T02:55:31.518Z,11.50
2022-10-17T02:58:04.007Z,11.54
2022-10-17T03:00:33.937Z,11.49
2022-10-17T03:03:02.224Z,11.53
2022-10-17T03:05:31.631Z,11.61
2022-10-17T03:07:59.728Z,11.72
2022-10-17T03:10:27.891Z,11.77
2022-10-17T03:12:55.957Z,11.79
2022-10-17T03:15:24.015Z,11.91
2022-10-17T03:17:52.120Z,11.99
2022-10-17T03:20:20.344Z,11.98
2022-10-17T03:22:49.843Z,11.97
2022-10-17T03:25:17.929Z,11.90
2022-10-17T03:27:46.197Z,11.93
2022-10-17T03:30:14.475Z,11.91
2022-10-17T03:32:42.511Z,11.79
2022-10-17T03:35:14.841Z,11.72
2022-10-17T03:37:43.358Z,11.60
2022-10-17T03:40:13.121Z,11.53
2022-10-17T03:42:41.212Z,11.48
2022-10-17T03:45:09.874Z,11.49
2022-10-17T03:47:38.155Z,11.42
2022-10-17T03:50:07.570Z,11.33
2022-10-17T03:52:35.613Z,11.30
2022-10-17T03:55:03.661Z,11.21
2022-10-17T03:57:33.154Z,11.12
2022-10-17T04:00:01.396Z,11.04
2022-10-17T04:02:29.422Z,10.92
2022-10-17T04:04:57.564Z,10.93
2022-10-17T04:09:54.768Z,10.77
2022-10-17T04:12:22.859Z,10.85
2022-10-17T04:14:52.453Z,10.90
2022-10-17T04:17:20.504Z,10.99
2022-10-17T04:19:50.432Z,11.00
2022-10-17T04:22:18.523Z,10.85
2022-10-17T04:24:46.651Z,10.84
2022-10-17T04:27:14.961Z,10.78
2022-10-17T04:29:44.047Z,10.69
2022-10-17T04:32:13.459Z,10.66
2022-10-17T04:34:41.743Z,10.66
2022-10-17T04:37:09.801Z,10.64
2022-10-17T04:39:37.889Z,10.74
2022-10-17T04:42:05.953Z,10.79
2022-10-17T04:44:35.609Z,10.91
2022-10-17T04:47:03.740Z,10.97
2022-10-17T04:49:33.188Z,10.97
2022-10-17T04:52:01.316Z,11.06
2022-10-17T04:54:29.391Z,11.09
2022-10-17T04:56:57.476Z,11.18
2022-10-17T04:59:25.874Z,11.23
2022-10-17T05:01:54.145Z,11.26
2022-10-17T05:04:24.717Z,11.28
2022-10-17T05:06:54.690Z,11.34
2022-10-17T05:09:22.723Z,11.40
2022-10-17T05:11:50.937Z,11.51
2022-10-17T05:14:18.999Z,11.60
2022-10-17T05:16:47.135Z,11.61
2022-10-17T05:19:15.541Z,11.62
2022-10-17T05:21:43.652Z,11.65
2022-10-17T05:24:15.626Z,11.77
2022-10-17T05:26:43.840Z,11.77
2022-10-17T05:29:12.191Z,11.78
2022-10-17T05:31:40.315Z,11.81
2022-10-17T05:34:11.542Z,11.97
2022-10-17T05:36:42.032Z,11.96
2022-10-17T05:39:10.200Z,12.01
2022-10-17T05:41:39.675Z,12.04
2022-10-17T05:44:07.787Z,12.06
2022-10-17T05:46:35.938Z,12.17
2022-10-17T05:49:14.684Z,12.17
2022-10-17T05:51:52.153Z,12.29
2022-10-17T05:54:20.310Z,12.39
2022-10-17T05:56:53.081Z,12.53
2022-10-17T05:59:21.312Z,12.64
2022-10-17T06:01:49.531Z,12.77
2022-10-17T06:04:17.916Z,13.03
2022-10-17T06:06:46.136Z,13.17
2022-10-17T06:09:14.345Z,13.23
2022-10-17T06:11:42.359Z,13.45
2022-10-17T06:14:11.934Z,13.53
2022-10-17T06:16:40.007Z,13.67
2022-10-17T06:19:08.103Z,13.69
2022-10-17T06:21:37.898Z,13.72
2022-10-17T06:24:06.212Z,13.87
2022-10-17T06:26:34.854Z,13.87
2022-10-17T06:29:03.086Z,13.93
2022-10-17T06:31:32.623Z,14.10
2022-10-17T06:34:00.689Z,14.11
2022-10-17T06:36:30.720Z,14.06
2022-10-17T06:38:58.794Z,14.03
2022-10-17T06:41:26.899Z,14.13
2022-10-17T06:43:55.157Z,14.24
2022-10-17T06:46:25.614Z,14.38
2022-10-17T06:48:55.165Z,14.40
2022-10-17T06:51:23.244Z,14.56
2022-10-17T06:53:51.536Z,14.66
2022-10-17T06:56:19.591Z,14.65
2022-10-17T06:58:49.554Z,14.66
2022-10-17T07:01:17.641Z,14.75
2022-10-17T07:03:50.113Z,14.73
2022-10-17T07:06:19.756Z,14.79
2022-10-17T07:08:51.665Z,14.76
2022-10-17T07:11:22.721Z,14.94
2022-10-17T07:13:51.289Z,14.98
2022-10-17T07:16:19.494Z,15.05
2022-10-17T07:18:50.460Z,15.10
2022-10-17T07:21:20.075Z,15.15
2022-10-17T07:23:48.130Z,15.24
2022-10-17T07:26:18.419Z,15.29
2022-10-17T07:28:48.791Z,15.48
2022-10-17T07:31:19.485Z,15.59
2022-10-17T07:33:47.896Z,15.81
2022-10-17T07:36:16.869Z,15.80
2022-10-17T07:38:46.360Z,15.78
2022-10-17T07:41:19.216Z,15.89
2022-10-17T07:43:49.985Z,15.98
2022-10-17T07:46:19.214Z,16.00
2022-10-17T07:48:47.320Z,16.03
2022-10-17T07:51:15.386Z,16.20
2022-10-17T07:53:47.962Z,16.36
2022-10-17T07:56:18.862Z,16.41
2022-10-17T07:58:48.400Z,16.32
2022-10-17T08:01:17.792Z,16.26
2022-10-17T08:03:48.613Z,16.39
2022-10-17T08:06:16.840Z,16.46
2022-10-17T08:08:45.618Z,16.31
2022-10-17T08:11:16.038Z,16.33
2022-10-17T08:13:45.628Z,16.38
2022-10-17T08:16:14.538Z,16.22
2022-10-17T08:18:44.253Z,16.37
2022-10-17T08:21:14.549Z,16.41
2022-10-17T08:23:42.700Z,16.45
2022-10-17T08:26:13.633Z,16.45
2022-10-17T08:28:42.514Z,16.52
2022-10-17T08:31:14.008Z,16.63
2022-10-17T08:33:42.786Z,16.45
2022-10-17T08:36:13.606Z,16.19
2022-10-17T08:38:43.717Z,16.41
2022-10-17T08:41:19.012Z,16.34
2022-10-17T08:44:04.027Z,16.50
2022-10-17T08:46:36.901Z,16.98
2022-10-17T08:49:12.262Z,16.97
2022-10-17T08:51:45.951Z,16.97
2022-10-17T08:54:19.135Z,16.98
2022-10-17T08:56:51.334Z,17.07
2022-10-17T08:59:21.611Z,17.17
2022-10-17T09:01:56.347Z,16.99
2022-10-17T09:04:48.896Z,16.89
2022-10-17T09:07:23.627Z,17.29
2022-10-17T09:09:58.986Z,17.23
2022-10-17T09:12:35.770Z,17.12
2022-10-17T09:15:32.483Z,17.28
2022-10-17T09:18:08.950Z,17.39
2022-10-17T09:20:41.663Z,17.30
2022-10-17T09:23:15.015Z,17.26
2022-10-17T09:25:45.308Z,17.32
2022-10-17T09:28:19.540Z,17.08
2022-10-17T09:30:51.716Z,17.21
2022-10-17T09:33:34.630Z,17.09
2022-10-17T09:36:05.797Z,17.24
2022-10-17T09:38:40.893Z,17.10
2022-10-17T09:41:42.942Z,17.02
2022-10-17T09:44:25.252Z,17.35
2022-10-17T09:47:10.140Z,17.46
2022-10-17T09:49:41.857Z,17.40
2022-10-17T09:52:15.719Z,17.34
2022-10-17T09:54:46.791Z,17.34
2022-10-17T09:57:16.472Z,17.17
2022-10-17T09:59:46.478Z,17.34
2022-10-17T10:02:21.172Z,17.56
2022-10-17T10:05:07.059Z,17.62
2022-10-17T10:07:38.529Z,17.65
2022-10-17T10:10:24.162Z,17.69
2022-10-17T10:13:05.658Z,17.50
2022-10-17T10:15:37.841Z,17.58
2022-10-17T10:21:11.173Z,17.84
2022-10-17T10:23:41.271Z,17.84
2022-10-17T10:26:22.957Z,17.58
2022-10-17T10:29:01.595Z,17.50
2022-10-17T10:31:33.490Z,17.33
2022-10-17T10:34:04.291Z,17.64
2022-10-17T10:36:48.388Z,17.51
2022-10-17T10:39:36.111Z,17.48
2022-10-17T10:42:08.048Z,17.56
2022-10-17T10:44:40.749Z,17.64
2022-10-17T10:47:15.869Z,17.35
2022-10-17T10:49:44.513Z,17.31
2022-10-17T10:52:24.024Z,17.39
2022-10-17T10:54:59.250Z,17.17
2022-10-17T10:57:32.202Z,17.26
2022-10-17T11:00:08.287Z,17.30
2022-10-17T11:02:41.644Z,17.46
2022-10-17T11:05:16.838Z,17.49
2022-10-17T11:07:52.493Z,17.54
2022-10-17T11:10:26.644Z,17.37
2022-10-17T11:13:01.422Z,17.33
2022-10-17T11:15:37.059Z,17.37
2022-10-17T11:18:07.984Z,17.24
2022-10-17T11:20:45.939Z,17.36
2022-10-17T11:23:21.727Z,17.36
2022-10-17T11:25:52.303Z,17.10
2022-10-17T11:28:22.700Z,17.16
2022-10-17T11:30:56.559Z,17.20
2022-10-17T11:33:30.976Z,17.22
2022-10-17T11:36:04.739Z,17.26
2022-10-17T11:38:43.157Z,17.26
2022-10-17T11:41:16.398Z,17.40
2022-10-17T11:43:51.422Z,17.27
2022-10-17T11:46:24.469Z,17.18
2022-10-17T11:49:15.042Z,17.26
2022-10-17T11:52:05.939Z,17.08
2022-10-17T11:54:40.498Z,16.79
2022-10-17T11:57:32.746Z,16.91
2022-10-17T12:00:20.551Z,16.88
2022-10-17T12:02:59.066Z,16.95
2022-10-17T12:05:34.889Z,16.94
2022-10-17T12:08:10.843Z,17.09
2022-10-17T12:11:01.942Z,17.08
2022-10-17T12:13:51.976Z,17.15
2022-10-17T12:16:46.860Z,17.12
2022-10-17T12:19:28.595Z,17.07
2022-10-17T12:21:59.159Z,16.97
2022-10-17T12:24:42.318Z,17.00
2022-10-17T12:27:48.688Z,17.10
2022-10-17T12:30:21.445Z,17.17
2022-10-17T12:33:21.978Z,17.13
2022-10-17T12:35:51.903Z,16.88
2022-10-17T12:38:25.927Z,16.86
2022-10-17T12:41:04.605Z,16.71
2022-10-17T12:43:53.795Z,16.61
2022-10-17T12:46:48.440Z,16.53
2022-10-17T12:49:25.590Z,16.57
2022-10-17T12:52:22.163Z,16.46
2022-10-17T12:55:00.487Z,16.45
2022-10-17T12:57:40.743Z,16.52
2022-10-17T13:00:18.395Z,16.57
2022-10-17T13:02:49.518Z,16.62
2022-10-17T13:05:33.748Z,16.44
2022-10-17T13:08:06.461Z,16.48
2022-10-17T13:10:40.725Z,16.44
2022-10-17T13:13:18.222Z,16.42
2022-10-17T13:15:50.092Z,16.32
2022-10-17T13:18:25.087Z,16.32
2022-10-17T13:20:58.695Z,16.28
2022-10-17T13:23:30.365Z,16.34
2022-10-17T13:26:20.491Z,16.35
2022-10-17T13:29:02.869Z,16.23
2022-10-17T13:31:33.153Z,16.25
2022-10-17T13:34:04.499Z,16.16
2022-10-17T13:36:33.963Z,16.18
2022-10-17T13:39:12.377Z,16.24
2022-10-17T13:41:43.555Z,16.18
2022-10-17T13:44:16.746Z,16.09
2022-10-17T13:46:45.806Z,16.03
2022-10-17T13:49:23.188Z,16.01
2022-10-17T13:51:55.368Z,15.95
2022-10-17T13:54:40.352Z,16.00
2022-10-17T13:57:19.897Z,15.98
2022-10-17T13:59:50.565Z,16.03
2022-10-17T14:02:21.567Z,15.95
2022-10-17T14:05:18.302Z,15.89
2022-10-17T14:08:10.717Z,15.85
2022-10-17T14:10:41.268Z,15.81
2022-10-17T14:13:21.124Z,15.74
2022-10-17T14:15:49.577Z,15.78
2022-10-17T14:18:22.510Z,15.66
2022-10-17T14:23:43.864Z,15.58
2022-10-17T14:26:15.427Z,15.57
2022-10-17T14:28:46.121Z,15.49
2022-10-17T14:31:36.217Z,15.48
2022-10-17T14:34:06.660Z,15.54
2022-10-17T14:36:42.125Z,15.39
2022-10-17T14:39:21.565Z,15.29
2022-10-17T14:41:50.704Z,15.30
2022-10-17T14:44:22.831Z,15.19
2022-10-17T14:46:55.345Z,15.15
2022-10-17T14:49:34.890Z,15.11
2022-10-17T14:52:28.587Z,15.03
2022-10-17T14:54:57.922Z,14.98
2022-10-17T14:57:29.556Z,14.95
2022-10-17T14:59:58.302Z,14.88
2022-10-17T15:02:27.488Z,14.87
2022-10-17T15:04:55.841Z,14.88
2022-10-17T15:07:26.018Z,14.81
2022-10-17T15:09:54.926Z,14.65
2022-10-17T15:12:25.917Z,14.59
2022-10-17T15:14:54.857Z,14.55
2022-10-17T15:17:27.027Z,14.60
2022-10-17T15:19:55.578Z,14.50
2022-10-17T15:22:25.508Z,14.48
2022-10-17T15:24:53.665Z,14.42
2022-10-17T15:27:23.599Z,14.40
2022-10-17T15:29:53.164Z,14.38
2022-10-17T15:32:21.409Z,14.30
2022-10-17T15:34:49.477Z,14.21
2022-10-17T15:37:22.352Z,14.22
2022-10-17T15:39:54.848Z,14.12
2022-10-17T15:42:24.673Z,14.07
2022-10-17T15:44:52.744Z,14.05
2022-10-17T15:47:26.732Z,14.04
2022-10-17T15:49:55.839Z,13.98
2022-10-17T15:52:25.492Z,14.00
2022-10-17T15:54:57.312Z,13.97
2022-10-17T15:57:29.884Z,13.88
2022-10-17T16:00:00.841Z,13.85
2022-10-17T16:02:29.107Z,13.82
2022-10-17T16:04:57.232Z,13.86
2022-10-17T16:07:25.256Z,13.76
2022-10-17T16:09:54.705Z,13.78
2022-10-17T16:12:29.121Z,13.75
2022-10-17T16:14:57.441Z,13.68
2022-10-17T16:17:25.598Z,13.65
2022-10-17T16:19:53.733Z,13.58
2022-10-17T16:22:28.122Z,13.56
2022-10-17T16:24:59.490Z,13.55
2022-10-17T16:27:27.951Z,13.47
2022-10-17T16:29:55.973Z,13.56
2022-10-17T16:32:24.190Z,13.51
2022-10-17T16:34:52.310Z,13.56
2022-10-17T16:37:20.376Z,13.47
2022-10-17T16:39:52.538Z,13.42
2022-10-17T16:42:22.651Z,13.43
2022-10-17T16:44:51.413Z,13.40
2022-10-17T16:47:20.654Z,13.35
2022-10-17T16:49:48.858Z,13.34
2022-10-17T16:52:17.160Z,13.28
2022-10-17T16:54:45.433Z,13.19
2022-10-17T16:57:13.476Z,13.14
2022-10-17T16:59:43.021Z,13.12
2022-10-17T17:02:12.136Z,13.10
2022-10-17T17:04:40.394Z,13.10
2022-10-17T17:07:08.474Z,13.03
2022-10-17T17:09:36.579Z,12.93
2022-10-17T17:12:04.783Z,12.98
2022-10-17T17:14:33.175Z,12.91
2022-10-17T17:17:02.769Z,12.91
2022-10-17T17:19:30.904Z,12.83
2022-10-17T17:21:58.992Z,12.76
2022-10-17T17:24:27.029Z,12.76
2022-10-17T17:26:57.421Z,12.65
2022-10-17T17:29:26.459Z,12.71
2022-10-17T17:31:54.626Z,12.77
2022-10-17T17:34:24.092Z,12.79
2022-10-17T17:36:52.186Z,12.75
2022-10-17T17:39:20.333Z,12.83
2022-10-17T17:41:48.468Z,12.81
2022-10-17T17:44:17.153Z,12.87
2022-10-17T17:46:46.064Z,12.88
2022-10-17T17:49:14.418Z,12.91
2022-10-17T17:51:46.612Z,12.80
2022-10-17T17:54:15.316Z,12.65
2022-10-17T17:56:43.678Z,12.47
2022-10-17T17:59:14.119Z,12.40
2022-10-17T18:01:42.525Z,12.39
2022-10-17T18:04:11.171Z,12.32
2022-10-17T18:06:40.352Z,12.23
2022-10-17T18:09:10.744Z,12.29
2022-10-17T18:11:39.164Z,12.22
2022-10-17T18:14:09.017Z,12.17
2022-10-17T18:16:38.271Z,12.19
2022-10-17T18:19:09.024Z,12.17
2022-10-17T18:21:37.803Z,12.10
2022-10-17T18:24:06.958Z,11.97
2022-10-17T18:26:36.756Z,11.96
2022-10-17T18:29:05.702Z,11.85
2022-10-17T18:31:36.184Z,11.81
2022-10-17T18:34:07.032Z,11.86
2022-10-17T18:36:37.285Z,11.86
2022-10-17T18:39:06.369Z,11.78
2022-10-17T18:41:34.688Z,11.66
2022-10-17T18:44:04.629Z,11.62
2022-10-17T18:46:40.617Z,11.64
2022-10-17T18:49:11.395Z,11.63
2022-10-17T18:51:39.859Z,11.58
2022-10-17T18:54:12.478Z,11.49
2022-10-17T18:56:40.677Z,11.63
2022-10-17T18:59:10.383Z,11.65
2022-10-17T19:01:38.782Z,11.69
2022-10-17T19:04:06.947Z,11.69
2022-10-17T19:06:35.114Z,11.70
2022-10-17T19:09:05.248Z,11.68
2022-10-17T19:11:35.104Z,11.72
2022-10-17T19:14:05.902Z,11.65
2022-10-17T19:16:38.761Z,11.67
2022-10-17T19:19:09.131Z,11.65
2022-10-17T19:21:37.247Z,11.69
2022-10-17T19:24:08.000Z,11.64
2022-10-17T19:26:37.807Z,11.64
2022-10-17T19:29:07.088Z,11.65
2022-10-17T19:31:37.300Z,11.63
2022-10-17T19:34:05.525Z,11.62
2022-10-17T19:36:35.673Z,11.61
2022-10-17T19:39:06.261Z,11.66
2022-10-17T19:41:36.073Z,11.66
2022-10-17T19:44:06.472Z,11.62
2022-10-17T19:46:36.295Z,11.62
2022-10-17T19:49:05.502Z,11.57
2022-10-17T19:51:34.091Z,11.58
2022-10-17T19:54:02.789Z,11.53
2022-10-17T19:56:33.938Z,11.61
2022-10-17T19:59:02.615Z,11.55
2022-10-17T20:01:33.410Z,11.55
2022-10-17T20:04:03.475Z,11.50
2022-10-17T20:06:31.840Z,11.55
2022-10-17T20:09:00.237Z,11.62
2022-10-17T20:11:30.049Z,11.67
2022-10-17T20:13:58.923Z,11.60
2022-10-17T20:16:29.662Z,11.71
2022-10-17T20:19:08.379Z,11.65
2022-10-17T20:21:39.492Z,11.63
2022-10-17T20:24:10.098Z,11.66
2022-10-17T20:26:39.801Z,11.57
2022-10-17T20:29:11.223Z,11.62
2022-10-17T20:31:40.622Z,11.64
2022-10-17T20:34:13.265Z,11.62
2022-10-17T20:36:41.521Z,11.52
2022-10-17T20:39:11.275Z,11.55
2022-10-17T20:41:39.623Z,11.57
2022-10-17T20:44:08.030Z,11.54
2022-10-17T20:46:41.577Z,11.51
2022-10-17T20:49:16.352Z,11.57
2022-10-17T20:51:44.970Z,11.63
2022-10-17T20:54:13.511Z,11.60
2022-10-17T20:56:41.626Z,11.63
2022-10-17T20:59:13.788Z,11.53
2022-10-17T21:01:42.271Z,11.60
2022-10-17T21:04:40.706Z,11.66
2022-10-17T21:07:00.412Z,11.62
2022-10-17T21:09:28.603Z,11.74
2022-10-17T21:11:56.962Z,11.68
2022-10-17T21:14:26.171Z,11.68
2022-10-17T21:16:54.585Z,11.57
2022-10-17T21:19:23.005Z,11.49
2022-10-17T21:21:51.866Z,11.39
2022-10-17T21:24:21.401Z,11.41
2022-10-17T21:26:55.584Z,11.47
2022-10-17T21:29:24.775Z,11.37
2022-10-17T21:31:53.736Z,11.27
2022-10-17T21:34:24.670Z,11.30
2022-10-17T21:36:53.657Z,11.35
2022-10-17T21:39:24.894Z,11.25
2022-10-17T21:41:53.486Z,11.33
2022-10-17T21:44:25.110Z,11.30
2022-10-17T21:46:54.132Z,11.28
2022-10-17T21:49:24.283Z,11.29
2022-10-17T21:51:53.329Z,11.27
2022-10-17T21:54:24.245Z,11.29
2022-10-17T21:56:52.736Z,11.33
2022-10-17T21:59:21.031Z,11.32
2022-10-17T22:01:49.194Z,11.31
2022-10-17T22:04:19.405Z,11.33
2022-10-17T22:06:51.243Z,11.38
2022-10-17T22:09:24.589Z,11.38
2022-10-17T22:11:55.843Z,11.37
2022-10-17T22:14:25.724Z,11.34
2022-10-17T22:16:53.931Z,11.27
2022-10-17T22:19:24.549Z,11.27
2022-10-17T22:21:52.810Z,11.30
2022-10-17T22:24:23.535Z,11.27
2022-10-17T22:26:51.943Z,11.24
2022-10-17T22:29:20.297Z,11.16
2022-10-17T22:31:48.876Z,11.18
2022-10-17T22:34:18.454Z,11.19
2022-10-17T22:36:47.834Z,11.21
2022-10-17T22:39:16.231Z,11.28
2022-10-17T22:41:45.851Z,11.26
2022-10-17T22:44:14.135Z,11.20
2022-10-17T22:46:42.316Z,11.17
2022-10-17T22:49:10.542Z,11.14
2022-10-17T22:51:38.770Z,11.12
2022-10-17T22:54:06.978Z,11.16
2022-10-17T22:56:35.084Z,11.17
2022-10-17T22:59:04.919Z,11.11
2022-10-17T23:01:33.225Z,11.20
2022-10-17T23:04:01.480Z,11.27
2022-10-17T23:06:29.683Z,11.18
2022-10-17T23:08:57.827Z,11.04
2022-10-17T23:11:26.125Z,11.14
2022-10-17T23:13:54.217Z,11.07
2022-10-17T23:16:23.720Z,11.17
2022-10-17T23:18:51.838Z,11.08
2022-10-17T23:21:20.053Z,11.14
2022-10-17T23:23:48.137Z,11.24
2022-10-17T23:26:16.408Z,11.24
2022-10-17T23:28:44.793Z,11.26
2022-10-17T23:31:16.686Z,11.25
2022-10-17T23:33:47.531Z,11.29
2022-10-17T23:36:17.441Z,11.33
2022-10-17T23:38:46.941Z,11.34
2022-10-17T23:41:15.988Z,11.36
2022-10-17T23:43:44.709Z,11.29
2022-10-17T23:46:13.962Z,11.24
2022-10-17T23:48:42.440Z,11.30
2022-10-17T23:51:12.671Z,11.33
2022-10-17T23:53:41.742Z,11.32
2022-10-17T23:56:11.489Z,11.30
2022-10-17T23:58:40.154Z,11.19
